Time;durP1;ratioP1;P1;durP2;ratioP2;P2;SDS_P1;SDS_P2;PMS_P1;PMS_P2;Temp;Humidity;BMP_temperature;BMP_pressure;BME280_temperature;BME280_humidity;BME280_pressure;Samples;Min_cycle;Max_cycle;Signal;HPM_P1;HPM_P2
2022/04/06 00:01:31;;;;;;;;;;;8.90;62.90;;;;;;5096173;28;19969;-56
2022/04/06 00:03:56;;;;;;;;;;;9.00;62.60;;;;;;5096167;28;19947;-54
2022/04/06 00:06:22;;;;;;;;;;;9.10;61.40;;;;;;5096490;28;19908;-55
2022/04/06 00:08:48;;;;;;;;;;;9.10;61.60;;;;;;5096141;28;20376;-54
2022/04/06 00:11:14;;;;;;;;;;;9.20;61.40;;;;;;5095997;28;19908;-54
2022/04/06 00:13:39;;;;;;;;;;;9.10;61.90;;;;;;5095928;28;19915;-55
2022/04/06 00:16:05;;;;;;;;;;;9.00;62.40;;;;;;5096124;28;19909;-61
2022/04/06 00:18:31;;;;;;;;;;;9.00;62.50;;;;;;5095621;28;20015;-57
2022/04/06 00:20:56;;;;;;;;;;;9.00;62.40;;;;;;5095884;28;19995;-56
2022/04/06 00:23:22;;;;;;;;;;;9.10;62.70;;;;;;5095673;28;19908;-55
2022/04/06 00:25:47;;;;;;;;;;;9.10;61.80;;;;;;5095861;28;19912;-56
2022/04/06 00:28:13;;;;;;;;;;;9.10;61.70;;;;;;5095753;28;20002;-56
2022/04/06 00:30:38;;;;;;;;;;;9.10;62.00;;;;;;5095710;28;19908;-56
2022/04/06 00:33:04;;;;;;;;;;;9.10;61.70;;;;;;5095300;28;19915;-54
2022/04/06 00:35:31;;;;;;;;;;;9.10;61.00;;;;;;5095754;28;19916;-54
2022/04/06 00:37:57;;;;;;;;;;;9.30;60.60;;;;;;5095066;28;20280;-55
2022/04/06 00:40:23;;;;;;;;;;;9.40;60.10;;;;;;5094021;28;19963;-54
2022/04/06 00:42:49;;;;;;;;;;;9.50;59.70;;;;;;5095498;28;19914;-56
2022/04/06 00:45:15;;;;;;;;;;;9.40;60.00;;;;;;5095228;28;19908;-56
2022/04/06 00:47:41;;;;;;;;;;;9.30;60.30;;;;;;5095415;28;19930;-55
2022/04/06 00:50:07;;;;;;;;;;;9.30;60.50;;;;;;5095166;28;19912;-55
2022/04/06 00:52:33;;;;;;;;;;;9.20;61.10;;;;;;5095158;28;19908;-55
2022/04/06 00:54:59;;;;;;;;;;;9.00;61.80;;;;;;5095314;28;19908;-55
2022/04/06 00:57:24;;;;;;;;;;;8.90;62.70;;;;;;5094946;28;19909;-55
2022/04/06 00:59:50;;;;;;;;;;;8.80;63.10;;;;;;5094926;28;19916;-55
2022/04/06 01:02:16;;;;;;;;;;;8.70;63.70;;;;;;5095212;28;19940;-55
2022/04/06 01:04:42;;;;;;;;;;;8.80;63.40;;;;;;5094905;28;19908;-55
2022/04/06 01:07:08;;;;;;;;;;;8.80;63.30;;;;;;5094907;28;19912;-55
2022/04/06 01:09:34;;;;;;;;;;;8.70;63.50;;;;;;5094759;28;19990;-55
2022/04/06 01:11:59;;;;;;;;;;;8.80;63.00;;;;;;5095031;28;19909;-55
2022/04/06 01:14:25;;;;;;;;;;;8.80;63.10;;;;;;5095044;28;20337;-55
2022/04/06 01:17:01;;;;;;;;;;;8.90;62.40;;;;;;5094438;28;19940;-56
2022/04/06 01:19:40;;;;;;;;;;;9.00;62.50;;;;;;5094735;28;19920;-55
2022/04/06 01:22:12;;;;;;;;;;;8.90;62.70;;;;;;5094666;28;19954;-55
2022/04/06 01:24:38;;;;;;;;;;;8.90;62.40;;;;;;5094611;28;19973;-55
2022/04/06 01:27:05;;;;;;;;;;;9.00;62.50;;;;;;5094397;28;19911;-55
2022/04/06 01:29:30;;;;;;;;;;;8.90;62.70;;;;;;5094502;28;19961;-55
2022/04/06 01:32:06;;;;;;;;;;;8.90;63.30;;;;;;5094606;28;20318;-55
2022/04/06 01:34:32;;;;;;;;;;;8.90;63.00;;;;;;5094393;28;19998;-55
2022/04/06 01:36:58;;;;;;;;;;;8.80;63.30;;;;;;5094700;28;20395;-55
2022/04/06 01:39:24;;;;;;;;;;;8.80;63.80;;;;;;5094047;28;20011;-55
2022/04/06 01:41:49;;;;;;;;;;;8.80;63.80;;;;;;5094548;28;20326;-54
2022/04/06 01:44:15;;;;;;;;;;;8.70;64.00;;;;;;5094160;28;19904;-55
2022/04/06 01:46:40;;;;;;;;;;;8.70;64.50;;;;;;5094266;28;20352;-55
2022/04/06 01:54:34;;;;;;;;;;;8.50;65.90;;;;;;5094536;28;20270;-56
2022/04/06 01:56:59;;;;;;;;;;;8.50;65.70;;;;;;5094363;28;19908;-56
2022/04/06 01:59:25;;;;;;;;;;;8.50;66.00;;;;;;5094252;28;19920;-54
2022/04/06 02:01:52;;;;;;;;;;;8.50;66.00;;;;;;5094247;28;19909;-54
2022/04/06 02:04:18;;;;;;;;;;;8.50;65.80;;;;;;5094174;28;19916;-57
2022/04/06 02:06:43;;;;;;;;;;;8.40;65.60;;;;;;5093904;28;19908;-55
2022/04/06 02:09:09;;;;;;;;;;;8.50;65.80;;;;;;5093478;28;19912;-55
2022/04/06 02:11:38;;;;;;;;;;;8.50;65.70;;;;;;5093867;28;19908;-55
2022/04/06 02:14:04;;;;;;;;;;;8.40;66.30;;;;;;5094117;28;19908;-56
2022/04/06 02:16:30;;;;;;;;;;;8.40;66.50;;;;;;5093899;28;20382;-56
2022/04/06 02:18:56;;;;;;;;;;;8.40;66.40;;;;;;5093715;28;19985;-55
2022/04/06 02:21:21;;;;;;;;;;;8.30;66.80;;;;;;5092416;28;19914;-57
2022/04/06 02:23:47;;;;;;;;;;;8.30;66.50;;;;;;5093695;28;20010;-56
2022/04/06 02:26:12;;;;;;;;;;;8.20;67.00;;;;;;5093809;28;19939;-56
2022/04/06 02:28:38;;;;;;;;;;;8.20;66.90;;;;;;5093828;28;19946;-56
2022/04/06 02:31:03;;;;;;;;;;;8.40;66.90;;;;;;5093761;28;19915;-56
2022/04/06 02:33:29;;;;;;;;;;;8.40;66.50;;;;;;5093907;28;19909;-56
2022/04/06 02:35:54;;;;;;;;;;;8.40;66.10;;;;;;5093425;28;19908;-56
2022/04/06 02:38:20;;;;;;;;;;;8.40;66.40;;;;;;5093139;28;19931;-56
2022/04/06 02:40:46;;;;;;;;;;;8.50;66.10;;;;;;5093761;28;19908;-56
2022/04/06 02:43:12;;;;;;;;;;;8.40;66.10;;;;;;5093449;28;19908;-56
2022/04/06 02:45:37;;;;;;;;;;;8.40;66.20;;;;;;5093535;28;20268;-55
2022/04/06 02:48:03;;;;;;;;;;;8.40;66.20;;;;;;5093590;28;19952;-56
2022/04/06 02:50:29;;;;;;;;;;;8.30;66.70;;;;;;5093593;28;20041;-56
2022/04/06 02:52:54;;;;;;;;;;;8.20;67.00;;;;;;5093439;28;19994;-54
2022/04/06 02:55:20;;;;;;;;;;;8.20;66.90;;;;;;5093298;28;19914;-53
2022/04/06 02:57:45;;;;;;;;;;;8.30;66.80;;;;;;5093273;28;19915;-55
2022/04/06 03:00:12;;;;;;;;;;;8.20;66.80;;;;;;5093302;28;19919;-54
2022/04/06 03:02:37;;;;;;;;;;;8.30;66.40;;;;;;5093513;28;19912;-54
2022/04/06 03:05:03;;;;;;;;;;;8.50;65.90;;;;;;5093588;28;19961;-55
2022/04/06 03:07:28;;;;;;;;;;;8.50;65.30;;;;;;5093172;28;19950;-54
2022/04/06 03:09:54;;;;;;;;;;;8.50;65.60;;;;;;5093329;28;20359;-55
2022/04/06 03:12:19;;;;;;;;;;;8.50;65.40;;;;;;5093368;28;20302;-55
2022/04/06 03:14:45;;;;;;;;;;;8.50;65.40;;;;;;5092971;28;20271;-55
2022/04/06 03:17:11;;;;;;;;;;;8.50;65.70;;;;;;5093264;28;20236;-55
2022/04/06 03:19:36;;;;;;;;;;;8.50;65.50;;;;;;5093180;28;19955;-56
2022/04/06 03:22:02;;;;;;;;;;;8.40;65.40;;;;;;5096367;28;20340;-55
2022/04/06 03:24:28;;;;;;;;;;;8.40;65.60;;;;;;5095765;28;19908;-55
2022/04/06 03:26:53;;;;;;;;;;;8.50;65.20;;;;;;5097303;28;20436;-58
2022/04/06 03:29:19;;;;;;;;;;;8.40;65.60;;;;;;5097101;28;20279;-55
2022/04/06 03:31:45;;;;;;;;;;;8.40;66.00;;;;;;5097190;28;19954;-54
2022/04/06 03:34:10;;;;;;;;;;;8.40;65.50;;;;;;5096976;28;19916;-54
2022/04/06 03:36:36;;;;;;;;;;;8.40;65.20;;;;;;5096856;28;19953;-54
2022/04/06 03:39:01;;;;;;;;;;;8.40;65.20;;;;;;5096997;28;20012;-56
2022/04/06 03:41:27;;;;;;;;;;;8.40;66.00;;;;;;5097393;28;19912;-56
2022/04/06 03:43:52;;;;;;;;;;;8.60;64.80;;;;;;5096864;28;19908;-56
2022/04/06 03:46:18;;;;;;;;;;;8.50;64.60;;;;;;5096845;28;19908;-55
2022/04/06 03:48:44;;;;;;;;;;;8.60;64.70;;;;;;5096840;28;19915;-56
2022/04/06 03:51:09;;;;;;;;;;;8.60;64.40;;;;;;5096718;28;19909;-56
2022/04/06 03:53:35;;;;;;;;;;;8.70;64.20;;;;;;5096585;28;20287;-55
2022/04/06 03:56:01;;;;;;;;;;;8.70;64.10;;;;;;5096731;28;20057;-56
2022/04/06 03:58:26;;;;;;;;;;;8.60;64.70;;;;;;5096336;28;19916;-56
2022/04/06 04:00:52;;;;;;;;;;;8.50;65.10;;;;;;5096762;28;20379;-56
2022/04/06 04:03:17;;;;;;;;;;;8.40;65.50;;;;;;5096589;28;19914;-56
2022/04/06 04:05:43;;;;;;;;;;;8.40;65.40;;;;;;5096320;28;20002;-54
2022/04/06 04:08:08;;;;;;;;;;;8.40;65.40;;;;;;5096394;28;20368;-55
2022/04/06 04:10:34;;;;;;;;;;;8.40;65.20;;;;;;5096230;28;20240;-54
2022/04/06 04:13:00;;;;;;;;;;;8.40;65.20;;;;;;5096107;28;19912;-55
2022/04/06 04:15:25;;;;;;;;;;;8.40;64.80;;;;;;5096274;28;19908;-55
2022/04/06 04:17:51;;;;;;;;;;;8.50;64.80;;;;;;5095869;28;20268;-55
2022/04/06 04:20:16;;;;;;;;;;;8.50;65.00;;;;;;5095863;28;19920;-54
2022/04/06 04:22:42;;;;;;;;;;;8.50;65.00;;;;;;5094685;28;19923;-54
2022/04/06 04:25:08;;;;;;;;;;;8.30;65.30;;;;;;5096413;28;19908;-54
2022/04/06 04:27:34;;;;;;;;;;;8.40;65.70;;;;;;5095813;28;20012;-56
2022/04/06 04:29:59;;;;;;;;;;;8.40;65.40;;;;;;5095997;28;19999;-55
2022/04/06 04:32:25;;;;;;;;;;;8.40;65.20;;;;;;5095602;28;20267;-56
2022/04/06 04:34:50;;;;;;;;;;;8.40;65.00;;;;;;5095552;28;19912;-55
2022/04/06 04:37:17;;;;;;;;;;;8.40;65.00;;;;;;5095481;28;20016;-55
2022/04/06 04:39:42;;;;;;;;;;;8.50;65.20;;;;;;5095644;28;20248;-54
2022/04/06 04:42:08;;;;;;;;;;;8.50;65.70;;;;;;5095644;28;19912;-55
2022/04/06 04:44:34;;;;;;;;;;;8.60;64.70;;;;;;5095524;28;19909;-55
2022/04/06 04:47:00;;;;;;;;;;;8.60;64.50;;;;;;5095705;28;19908;-56
2022/04/06 04:49:25;;;;;;;;;;;8.70;64.30;;;;;;5095745;28;20375;-54
2022/04/06 04:51:51;;;;;;;;;;;8.80;63.50;;;;;;5095235;28;20334;-55
2022/04/06 04:54:17;;;;;;;;;;;8.80;63.00;;;;;;5095375;28;20255;-54
2022/04/06 04:56:43;;;;;;;;;;;8.90;63.30;;;;;;5095633;28;19908;-56
2022/04/06 04:59:08;;;;;;;;;;;8.80;63.70;;;;;;5095159;28;19924;-55
2022/04/06 05:01:34;;;;;;;;;;;8.80;63.90;;;;;;5095303;28;19998;-55
2022/04/06 05:04:00;;;;;;;;;;;8.70;64.00;;;;;;5095104;28;19912;-57
2022/04/06 05:06:25;;;;;;;;;;;8.90;63.30;;;;;;5095396;28;19915;-56
2022/04/06 05:08:51;;;;;;;;;;;9.10;62.60;;;;;;5095614;28;19998;-54
2022/04/06 05:11:17;;;;;;;;;;;9.20;62.10;;;;;;5093777;28;19919;-55
2022/04/06 05:13:42;;;;;;;;;;;9.10;62.60;;;;;;5095267;28;19908;-55
2022/04/06 05:16:08;;;;;;;;;;;8.80;63.20;;;;;;5095340;28;19916;-55
2022/04/06 05:18:34;;;;;;;;;;;8.90;63.20;;;;;;5095056;28;19923;-55
2022/04/06 05:20:59;;;;;;;;;;;8.90;63.40;;;;;;5095109;28;19908;-55
2022/04/06 05:23:25;;;;;;;;;;;9.00;63.30;;;;;;5095117;28;19994;-56
2022/04/06 05:25:50;;;;;;;;;;;8.90;63.40;;;;;;5094861;28;19954;-56
2022/04/06 05:28:16;;;;;;;;;;;8.80;64.00;;;;;;5094970;28;19961;-56
2022/04/06 05:30:42;;;;;;;;;;;8.90;63.90;;;;;;5095158;28;19921;-54
2022/04/06 05:33:08;;;;;;;;;;;8.90;63.80;;;;;;5094866;28;20291;-54
2022/04/06 05:35:33;;;;;;;;;;;9.00;63.50;;;;;;5094534;28;19908;-56
2022/04/06 05:37:59;;;;;;;;;;;9.00;63.20;;;;;;5094173;28;20014;-56
2022/04/06 05:40:25;;;;;;;;;;;9.10;63.30;;;;;;5094483;28;20329;-54
2022/04/06 05:42:51;;;;;;;;;;;9.10;63.30;;;;;;5094284;28;19908;-54
2022/04/06 05:45:16;;;;;;;;;;;9.10;63.20;;;;;;5094360;28;20315;-57
2022/04/06 05:47:45;;;;;;;;;;;9.30;68.20;;;;;;5094232;28;19961;-57
2022/04/06 05:50:11;;;;;;;;;;;9.50;63.30;;;;;;5093648;28;20356;-62
2022/04/06 05:52:37;;;;;;;;;;;9.60;63.10;;;;;;5094144;28;19978;-59
2022/04/06 05:55:03;;;;;;;;;;;9.70;62.60;;;;;;5094376;28;19930;-60
2022/04/06 05:57:29;;;;;;;;;;;9.70;63.00;;;;;;5094034;28;20465;-59
2022/04/06 05:59:54;;;;;;;;;;;9.80;63.30;;;;;;5094037;28;19929;-59
2022/04/06 06:02:23;;;;;;;;;;;9.90;62.50;;;;;;5093883;28;20356;-59
2022/04/06 06:04:49;;;;;;;;;;;10.10;61.40;;;;;;5094088;28;20284;-56
2022/04/06 06:07:15;;;;;;;;;;;10.30;60.80;;;;;;5093946;28;19914;-55
2022/04/06 06:09:40;;;;;;;;;;;10.10;62.10;;;;;;5094390;28;20285;-58
2022/04/06 06:12:06;;;;;;;;;;;10.10;62.80;;;;;;5093893;28;19987;-56
2022/04/06 06:14:31;;;;;;;;;;;10.10;63.10;;;;;;5093932;28;20370;-56
2022/04/06 06:16:58;;;;;;;;;;;10.30;63.90;;;;;;5093855;28;19916;-55
2022/04/06 06:19:24;;;;;;;;;;;10.40;64.00;;;;;;5094206;28;20045;-56
2022/04/06 06:21:49;;;;;;;;;;;10.70;64.10;;;;;;5094254;28;19960;-58
2022/04/06 06:24:15;;;;;;;;;;;10.90;63.50;;;;;;5093851;28;19908;-58
2022/04/06 06:26:43;;;;;;;;;;;11.10;63.20;;;;;;5094037;28;20014;-56
2022/04/06 06:29:09;;;;;;;;;;;11.40;63.00;;;;;;5093997;28;20041;-55
2022/04/06 06:31:34;;;;;;;;;;;11.60;62.60;;;;;;5093597;28;19974;-56
2022/04/06 06:34:00;;;;;;;;;;;11.70;62.00;;;;;;5093300;28;19915;-55
2022/04/06 06:36:26;;;;;;;;;;;11.90;61.80;;;;;;5093421;28;19915;-56
2022/04/06 06:38:52;;;;;;;;;;;12.10;60.90;;;;;;5093342;28;19974;-56
2022/04/06 06:41:18;;;;;;;;;;;12.30;59.90;;;;;;5093522;28;19938;-62
2022/04/06 06:43:44;;;;;;;;;;;12.50;59.00;;;;;;5093910;28;19908;-56
2022/04/06 06:46:11;;;;;;;;;;;12.60;59.00;;;;;;5093470;28;19982;-55
2022/04/06 06:48:37;;;;;;;;;;;12.80;57.50;;;;;;5093265;28;19951;-55
2022/04/06 06:51:03;;;;;;;;;;;13.00;56.50;;;;;;5093296;28;20421;-55
2022/04/06 06:53:28;;;;;;;;;;;13.20;56.00;;;;;;5093583;28;19931;-55
2022/04/06 06:55:54;;;;;;;;;;;13.40;56.10;;;;;;5096904;28;19959;-58
2022/04/06 06:58:19;;;;;;;;;;;13.50;55.50;;;;;;5097704;28;20468;-55
2022/04/06 07:00:45;;;;;;;;;;;13.70;54.50;;;;;;5097498;28;19908;-55
2022/04/06 07:03:11;;;;;;;;;;;13.80;54.20;;;;;;5097730;28;19908;-56
2022/04/06 07:05:36;;;;;;;;;;;14.00;53.90;;;;;;5097718;28;19908;-55
2022/04/06 07:08:02;;;;;;;;;;;14.10;52.30;;;;;;5097680;28;20287;-55
2022/04/06 07:10:29;;;;;;;;;;;14.20;50.80;;;;;;5097306;28;20086;-55
2022/04/06 07:12:54;;;;;;;;;;;14.30;49.60;;;;;;5097483;28;19916;-56
2022/04/06 07:15:20;;;;;;;;;;;14.40;49.00;;;;;;5097447;28;19908;-55
2022/04/06 07:17:55;;;;;;;;;;;14.50;48.60;;;;;;5097050;28;19908;-55
2022/04/06 07:20:22;;;;;;;;;;;14.70;51.00;;;;;;5097417;28;19962;-55
2022/04/06 07:22:47;;;;;;;;;;;14.80;49.00;;;;;;5097159;28;19977;-55
2022/04/06 07:25:13;;;;;;;;;;;14.90;49.00;;;;;;5096947;28;19908;-56
2022/04/06 07:27:39;;;;;;;;;;;15.00;49.10;;;;;;5097020;28;19918;-63
2022/04/06 07:30:06;;;;;;;;;;;15.10;48.70;;;;;;5096623;28;19908;-55
2022/04/06 07:32:32;;;;;;;;;;;15.10;49.30;;;;;;5096718;28;19916;-55
2022/04/06 07:34:58;;;;;;;;;;;15.00;47.20;;;;;;5097194;28;19975;-59
2022/04/06 07:37:23;;;;;;;;;;;14.70;47.10;;;;;;5095578;28;20020;-60
2022/04/06 07:39:49;;;;;;;;;;;14.70;48.10;;;;;;5096718;28;19969;-57
2022/04/06 07:42:14;;;;;;;;;;;14.80;48.50;;;;;;5097109;28;20348;-55
2022/04/06 07:44:40;;;;;;;;;;;15.00;48.60;;;;;;5096958;28;20360;-56
2022/04/06 07:47:05;;;;;;;;;;;15.20;48.80;;;;;;5097072;28;20365;-60
2022/04/06 07:49:31;;;;;;;;;;;15.10;47.10;;;;;;5096524;28;19912;-64
2022/04/06 07:51:57;;;;;;;;;;;14.90;47.20;;;;;;5096520;28;19943;-55
2022/04/06 07:54:23;;;;;;;;;;;14.80;47.80;;;;;;5096654;28;19962;-58
2022/04/06 07:56:48;;;;;;;;;;;14.90;47.80;;;;;;5096964;28;20352;-56
2022/04/06 07:59:14;;;;;;;;;;;15.00;47.80;;;;;;5096598;28;19998;-55
2022/04/06 08:01:40;;;;;;;;;;;15.20;46.90;;;;;;5096537;28;19915;-64
2022/04/06 08:04:05;;;;;;;;;;;15.30;46.60;;;;;;5096449;28;20341;-64
2022/04/06 08:06:31;;;;;;;;;;;15.50;47.00;;;;;;5096038;28;19908;-57
2022/04/06 08:08:56;;;;;;;;;;;15.70;46.40;;;;;;5096423;28;20461;-55
2022/04/06 08:11:22;;;;;;;;;;;15.70;46.20;;;;;;5096281;28;19908;-55
2022/04/06 08:13:48;;;;;;;;;;;15.60;46.30;;;;;;5096170;28;20276;-56
2022/04/06 08:16:14;;;;;;;;;;;15.60;46.30;;;;;;5096467;28;19912;-56
2022/04/06 08:18:39;;;;;;;;;;;15.60;46.60;;;;;;5096199;28;20345;-61
2022/04/06 08:21:09;;;;;;;;;;;15.70;45.50;;;;;;5096272;28;20359;-56
2022/04/06 08:23:35;;;;;;;;;;;15.90;45.70;;;;;;5096288;28;20353;-55
2022/04/06 08:26:00;;;;;;;;;;;15.90;45.20;;;;;;5084156;28;19957;-53
2022/04/06 08:28:26;;;;;;;;;;;16.00;44.70;;;;;;5100012;28;19912;-55
2022/04/06 08:30:51;;;;;;;;;;;16.00;44.90;;;;;;5104329;28;19913;-54
2022/04/06 08:33:17;;;;;;;;;;;16.00;44.70;;;;;;5111853;28;19911;-53
2022/04/06 08:35:43;;;;;;;;;;;15.80;44.60;;;;;;5113999;28;19915;-53
2022/04/06 08:38:12;;;;;;;;;;;15.60;45.80;;;;;;5095312;28;20391;-54
2022/04/06 08:40:39;;;;;;;;;;;15.50;46.50;;;;;;5100927;28;19923;-54
2022/04/06 08:43:06;;;;;;;;;;;15.40;46.90;;;;;;5095365;28;19909;-54
2022/04/06 08:45:39;;;;;;;;;;;15.50;48.70;;;;;;5075470;28;19908;-54
2022/04/06 08:48:08;;;;;;;;;;;15.60;47.60;;;;;;5094237;28;19908;-55
2022/04/06 08:50:34;;;;;;;;;;;15.30;46.70;;;;;;5107859;28;20002;-55
2022/04/06 08:53:01;;;;;;;;;;;15.30;48.20;;;;;;5110101;28;19918;-55
2022/04/06 08:55:27;;;;;;;;;;;15.10;47.40;;;;;;5116059;28;19914;-55
2022/04/06 08:57:52;;;;;;;;;;;15.00;49.20;;;;;;5116007;28;19947;-54
2022/04/06 09:00:18;;;;;;;;;;;15.20;48.50;;;;;;5115590;28;20294;-53
2022/04/06 09:02:44;;;;;;;;;;;15.30;48.00;;;;;;5115985;28;19943;-55
2022/04/06 09:05:11;;;;;;;;;;;15.40;47.90;;;;;;5115803;28;19951;-54
2022/04/06 09:07:38;;;;;;;;;;;15.50;47.80;;;;;;5115634;28;19914;-54
2022/04/06 09:10:03;;;;;;;;;;;15.50;47.20;;;;;;5114170;28;19960;-56
2022/04/06 09:12:29;;;;;;;;;;;15.50;47.30;;;;;;5114343;28;20384;-53
2022/04/06 09:15:08;;;;;;;;;;;15.60;48.10;;;;;;5115413;28;20318;-66
2022/04/06 09:17:44;;;;;;;;;;;15.60;46.90;;;;;;5114829;28;19907;-56
2022/04/06 09:20:10;;;;;;;;;;;15.50;47.00;;;;;;5115074;28;19936;-57
2022/04/06 09:22:36;;;;;;;;;;;15.60;47.20;;;;;;5115161;28;20003;-55
2022/04/06 09:25:03;;;;;;;;;;;15.60;47.60;;;;;;5115244;28;19912;-54
2022/04/06 09:27:30;;;;;;;;;;;15.60;46.30;;;;;;5093650;28;19919;-55
2022/04/06 09:29:56;;;;;;;;;;;15.30;46.50;;;;;;5094021;28;19915;-55
2022/04/06 09:32:21;;;;;;;;;;;15.20;47.40;;;;;;5094271;28;19919;-55
2022/04/06 09:34:47;;;;;;;;;;;15.30;46.80;;;;;;5094400;28;20007;-57
2022/04/06 09:37:26;;;;;;;;;;;15.40;46.80;;;;;;5094226;28;20383;-56
2022/04/06 09:39:52;;;;;;;;;;;15.10;46.50;;;;;;5094604;28;20003;-57
2022/04/06 09:42:22;;;;;;;;;;;15.00;47.20;;;;;;5092949;28;20015;-55
2022/04/06 09:47:38;;;;;;;;;;;15.30;47.70;;;;;;5094741;28;20019;-55
2022/04/06 09:50:14;;;;;;;;;;;15.50;44.80;;;;;;5094095;28;19961;-55
2022/04/06 09:52:40;;;;;;;;;;;15.20;45.50;;;;;;5102227;28;19912;-55
2022/04/06 09:55:07;;;;;;;;;;;15.10;46.10;;;;;;5097950;28;19951;-56
2022/04/06 09:57:43;;;;;;;;;;;15.20;46.20;;;;;;5094243;28;19908;-54
2022/04/06 10:00:10;;;;;;;;;;;15.40;46.40;;;;;;5093924;28;20325;-55
2022/04/06 10:02:36;;;;;;;;;;;15.60;46.50;;;;;;5094143;28;19977;-55
2022/04/06 10:05:02;;;;;;;;;;;15.50;45.00;;;;;;5094127;28;19908;-55
2022/04/06 10:07:28;;;;;;;;;;;15.50;44.90;;;;;;5094669;28;19919;-56
2022/04/06 10:09:54;;;;;;;;;;;15.40;44.80;;;;;;5094061;28;19939;-56
2022/04/06 10:12:20;;;;;;;;;;;15.40;45.40;;;;;;5114353;28;19907;-56
2022/04/06 10:14:46;;;;;;;;;;;15.60;45.60;;;;;;5114142;28;19908;-60
2022/04/06 10:17:13;;;;;;;;;;;15.70;45.40;;;;;;5114829;28;19984;-60
2022/04/06 10:19:41;;;;;;;;;;;15.90;45.70;;;;;;5114355;28;19930;-59
2022/04/06 10:22:17;;;;;;;;;;;15.90;44.40;;;;;;5114900;28;20302;-56
2022/04/06 10:24:53;;;;;;;;;;;15.90;44.30;;;;;;5115127;28;19908;-59
2022/04/06 10:27:22;;;;;;;;;;;15.90;45.40;;;;;;5110651;28;19908;-58
2022/04/06 10:30:06;;;;;;;;;;;16.00;43.60;;;;;;5093415;28;19973;-56
2022/04/06 10:32:32;;;;;;;;;;;16.00;44.40;;;;;;5093541;28;19915;-56
2022/04/06 10:35:16;;;;;;;;;;;16.00;44.10;;;;;;5093593;28;19912;-56
2022/04/06 10:37:49;;;;;;;;;;;16.10;44.00;;;;;;5093227;28;19942;-56
2022/04/06 10:40:16;;;;;;;;;;;16.40;43.80;;;;;;5092737;28;20281;-56
2022/04/06 10:42:43;;;;;;;;;;;16.40;43.50;;;;;;5093505;28;20271;-56
2022/04/06 10:45:24;;;;;;;;;;;16.50;43.30;;;;;;5093165;28;19912;-57
2022/04/06 10:48:08;;;;;;;;;;;16.20;43.00;;;;;;5093487;28;19961;-56
2022/04/06 10:50:34;;;;;;;;;;;16.30;45.20;;;;;;5093423;28;19912;-56
2022/04/06 10:53:18;;;;;;;;;;;16.30;43.10;;;;;;5093031;28;19920;-56
2022/04/06 10:55:57;;;;;;;;;;;16.50;43.50;;;;;;5093368;28;19954;-56
2022/04/06 10:58:25;;;;;;;;;;;16.40;42.30;;;;;;5093059;28;19915;-57
2022/04/06 11:01:09;;;;;;;;;;;16.60;43.10;;;;;;5093222;28;19935;-57
2022/04/06 11:03:38;;;;;;;;;;;16.70;43.10;;;;;;5093187;28;19908;-59
2022/04/06 11:06:04;;;;;;;;;;;16.80;43.10;;;;;;5093401;28;20310;-56
2022/04/06 11:11:39;;;;;;;;;;;16.90;42.60;;;;;;5093139;28;19919;-55
2022/04/06 11:14:05;;;;;;;;;;;16.90;42.70;;;;;;5092916;28;19985;-57
2022/04/06 11:16:40;;;;;;;;;;;16.90;41.70;;;;;;5093249;28;20395;-57
2022/04/06 11:19:06;;;;;;;;;;;16.90;42.70;;;;;;5074671;28;19921;-55
2022/04/06 11:21:32;;;;;;;;;;;17.00;43.80;;;;;;5071691;28;19991;-55
2022/04/06 11:23:58;;;;;;;;;;;17.10;43.10;;;;;;5070567;28;19908;-56
2022/04/06 11:26:25;;;;;;;;;;;17.20;42.80;;;;;;5074889;28;19954;-56
2022/04/06 11:29:00;;;;;;;;;;;17.20;42.60;;;;;;5092007;28;20327;-59
2022/04/06 11:31:25;;;;;;;;;;;17.30;42.10;;;;;;5092364;28;20356;-57
2022/04/06 11:33:51;;;;;;;;;;;17.20;42.60;;;;;;5092541;28;19914;-60
2022/04/06 11:36:18;;;;;;;;;;;16.90;42.10;;;;;;5092416;28;19998;-55
2022/04/06 11:38:50;;;;;;;;;;;16.80;43.10;;;;;;5092230;28;19924;-59
2022/04/06 11:41:16;;;;;;;;;;;17.00;43.70;;;;;;5090445;28;19912;-57
2022/04/06 11:43:42;;;;;;;;;;;17.00;43.60;;;;;;5094947;28;19914;-59
2022/04/06 11:46:08;;;;;;;;;;;17.10;43.30;;;;;;5096235;28;19985;-58
2022/04/06 11:48:40;;;;;;;;;;;17.00;43.80;;;;;;5093200;28;19919;-59
2022/04/06 11:51:06;;;;;;;;;;;17.10;43.60;;;;;;5096310;28;20275;-59
2022/04/06 11:53:31;;;;;;;;;;;17.20;43.40;;;;;;5096433;28;20002;-59
2022/04/06 11:55:59;;;;;;;;;;;17.30;43.10;;;;;;5096233;28;19919;-60
2022/04/06 11:58:31;;;;;;;;;;;17.20;42.00;;;;;;5095784;28;20327;-58
2022/04/06 12:00:58;;;;;;;;;;;17.20;42.40;;;;;;5093696;28;19930;-58
2022/04/06 12:03:27;;;;;;;;;;;17.20;43.40;;;;;;5095883;28;19969;-58
2022/04/06 12:05:52;;;;;;;;;;;17.10;42.40;;;;;;5095734;28;20348;-61
2022/04/06 12:08:18;;;;;;;;;;;17.20;43.10;;;;;;5095754;28;19943;-58
2022/04/06 12:10:48;;;;;;;;;;;17.10;43.40;;;;;;5095889;28;19915;-59
2022/04/06 12:13:14;;;;;;;;;;;16.80;41.90;;;;;;5093031;28;20279;-59
2022/04/06 12:15:40;;;;;;;;;;;16.90;42.40;;;;;;5095544;28;19915;-59
2022/04/06 12:18:05;;;;;;;;;;;17.00;40.40;;;;;;5095454;28;19915;-58
2022/04/06 12:20:31;;;;;;;;;;;16.70;39.70;;;;;;5095554;28;19908;-58
2022/04/06 12:23:03;;;;;;;;;;;16.80;42.20;;;;;;5094361;28;19934;-56
2022/04/06 12:25:30;;;;;;;;;;;17.00;41.40;;;;;;5094097;28;19959;-57
2022/04/06 12:28:28;;;;;;;;;;;17.20;40.30;;;;;;5094132;28;19962;-57
2022/04/06 12:31:04;;;;;;;;;;;17.40;39.70;;;;;;5082768;28;19908;-56
2022/04/06 12:33:41;;;;;;;;;;;17.50;40.60;;;;;;5093637;28;19908;-58
2022/04/06 12:36:16;;;;;;;;;;;17.60;38.90;;;;;;5095777;28;19908;-57
2022/04/06 12:39:01;;;;;;;;;;;17.70;37.20;;;;;;5095399;28;19924;-58
2022/04/06 12:41:28;;;;;;;;;;;17.50;37.10;;;;;;5095339;28;20330;-59
2022/04/06 12:43:54;;;;;;;;;;;17.40;35.80;;;;;;5095787;28;19908;-59
2022/04/06 12:46:38;;;;;;;;;;;17.00;37.30;;;;;;5095870;28;20275;-61
2022/04/06 12:49:22;;;;;;;;;;;17.10;38.00;;;;;;5095418;28;20020;-59
2022/04/06 12:51:48;;;;;;;;;;;17.20;38.10;;;;;;5095275;28;19965;-57
2022/04/06 12:54:13;;;;;;;;;;;17.20;37.70;;;;;;5095282;28;19957;-61
2022/04/06 12:56:59;;;;;;;;;;;16.80;39.60;;;;;;5095378;28;19907;-58
2022/04/06 12:59:34;;;;;;;;;;;16.50;40.90;;;;;;5093755;28;19916;-55
2022/04/06 13:01:59;;;;;;;;;;;16.70;41.50;;;;;;5095588;28;20279;-56
2022/04/06 13:04:25;;;;;;;;;;;16.90;38.90;;;;;;5091636;28;19926;-59
2022/04/06 13:06:50;;;;;;;;;;;17.20;39.60;;;;;;5097276;28;20248;-57
2022/04/06 13:09:16;;;;;;;;;;;17.40;40.50;;;;;;5097975;28;19909;-56
2022/04/06 13:11:42;;;;;;;;;;;17.40;38.80;;;;;;5095115;28;19998;-56
2022/04/06 13:14:07;;;;;;;;;;;17.40;37.00;;;;;;5094980;28;19919;-61
2022/04/06 13:16:35;;;;;;;;;;;17.00;40.00;;;;;;5102510;28;20335;-59
2022/04/06 13:19:04;;;;;;;;;;;17.00;40.30;;;;;;5100508;28;19920;-57
2022/04/06 13:21:33;;;;;;;;;;;17.00;40.80;;;;;;5098723;28;19915;-58
2022/04/06 13:24:02;;;;;;;;;;;17.00;39.50;;;;;;5083136;28;19920;-64
2022/04/06 13:26:27;;;;;;;;;;;17.10;38.60;;;;;;5084111;28;19912;-59
2022/04/06 13:28:53;;;;;;;;;;;17.30;39.80;;;;;;5084617;28;20253;-56
2022/04/06 13:31:18;;;;;;;;;;;17.40;41.70;;;;;;5083007;28;19979;-59
2022/04/06 13:33:44;;;;;;;;;;;17.10;43.00;;;;;;5076446;28;19912;-57
2022/04/06 13:36:10;;;;;;;;;;;17.00;45.80;;;;;;5074834;28;19916;-67
2022/04/06 13:38:35;;;;;;;;;;;16.90;46.70;;;;;;5073834;28;19971;-63
2022/04/06 13:41:03;;;;;;;;;;;16.90;47.70;;;;;;5073996;28;20001;-56
2022/04/06 13:43:29;;;;;;;;;;;17.00;48.00;;;;;;5074140;28;20583;-58
2022/04/06 13:45:54;;;;;;;;;;;17.00;48.50;;;;;;5074095;28;19912;-54
2022/04/06 13:48:20;;;;;;;;;;;17.10;49.40;;;;;;5074356;28;19909;-70
2022/04/06 13:50:45;;;;;;;;;;;17.20;48.60;;;;;;5074136;28;19909;-59
2022/04/06 13:53:11;;;;;;;;;;;17.40;48.70;;;;;;5073057;28;20053;-61
2022/04/06 13:55:37;;;;;;;;;;;17.40;47.50;;;;;;5073869;28;19915;-56
2022/04/06 13:58:03;;;;;;;;;;;17.40;41.10;;;;;;5074258;28;19915;-63
2022/04/06 14:00:30;;;;;;;;;;;17.60;40.60;;;;;;5073852;28;19974;-57
2022/04/06 14:02:56;;;;;;;;;;;17.40;41.20;;;;;;5073657;28;19969;-55
2022/04/06 14:05:22;;;;;;;;;;;17.50;41.10;;;;;;5081112;28;19916;-57
2022/04/06 14:07:48;;;;;;;;;;;17.20;39.80;;;;;;5094002;28;19912;-56
2022/04/06 14:10:14;;;;;;;;;;;16.90;40.80;;;;;;5094345;28;19915;-57
2022/04/06 14:12:40;;;;;;;;;;;16.70;39.80;;;;;;5094013;28;19954;-55
2022/04/06 14:15:05;;;;;;;;;;;16.70;42.60;;;;;;5094071;28;19908;-58
2022/04/06 14:17:31;;;;;;;;;;;16.80;43.30;;;;;;5093984;28;20367;-56
2022/04/06 14:19:57;;;;;;;;;;;16.90;42.50;;;;;;5093693;28;19916;-55
2022/04/06 14:22:24;;;;;;;;;;;17.00;42.10;;;;;;5093977;28;19908;-58
2022/04/06 14:27:33;;;;;;;;;;;16.80;35.40;;;;;;5084000;28;20425;-55
2022/04/06 14:29:59;;;;;;;;;;;17.00;35.90;;;;;;5093897;28;19912;-55
2022/04/06 14:32:24;;;;;;;;;;;17.10;37.90;;;;;;5097288;28;20244;-56
2022/04/06 14:34:50;;;;;;;;;;;17.10;38.90;;;;;;5097176;28;19912;-58
2022/04/06 14:37:16;;;;;;;;;;;17.10;40.70;;;;;;5093550;28;19908;-58